Time;durP1;ratioP1;P1;durP2;ratioP2;P2;SDS_P1;SDS_P2;PMS_P1;PMS_P2;Temp;Humidity;BMP_temperature;BMP_pressure;BME280_temperature;BME280_humidity;BME280_pressure;Samples;Min_cycle;Max_cycle;Signal;HPM_P1;HPM_P2
2023/01/19 00:01:24;;;;;;;18.00;6.43;;;0.80;99.90;;;;;;5118800;28;20034;-80
2023/01/19 00:03:49;;;;;;;16.67;6.83;;;0.80;99.90;;;;;;5118911;28;20031;-81
2023/01/19 00:06:16;;;;;;;16.10;6.50;;;0.80;99.90;;;;;;5118890;28;20154;-81
2023/01/19 00:08:47;;;;;;;13.27;6.20;;;0.80;99.90;;;;;;5118359;28;20027;-82
2023/01/19 00:11:13;;;;;;;12.80;6.40;;;0.80;99.90;;;;;;5100723;28;20112;-81
2023/01/19 00:13:39;;;;;;;13.33;6.90;;;0.90;99.90;;;;;;5100238;28;20036;-81
2023/01/19 00:16:05;;;;;;;13.37;6.27;;;0.90;99.90;;;;;;5099687;28;20038;-81
2023/01/19 00:18:31;;;;;;;12.37;6.03;;;0.90;99.90;;;;;;5096676;28;20043;-81
2023/01/19 00:20:57;;;;;;;11.23;6.53;;;1.00;99.90;;;;;;5096820;28;20039;-80
2023/01/19 00:23:22;;;;;;;13.80;6.50;;;0.90;99.90;;;;;;5096811;28;20119;-80
2023/01/19 00:25:50;;;;;;;12.50;7.00;;;0.90;99.90;;;;;;5114495;28;20020;-80
2023/01/19 00:28:16;;;;;;;15.90;6.87;;;0.80;99.90;;;;;;5114771;28;20050;-79
2023/01/19 00:30:43;;;;;;;11.13;6.20;;;0.80;99.90;;;;;;5096922;28;20024;-80
2023/01/19 00:33:12;;;;;;;12.80;6.53;;;0.90;99.90;;;;;;5101241;28;20081;-82
2023/01/19 00:35:38;;;;;;;14.63;6.27;;;0.80;99.90;;;;;;5100678;28;20052;-83
2023/01/19 00:38:03;;;;;;;15.20;6.70;;;0.80;99.90;;;;;;5100950;28;20441;-82
2023/01/19 00:40:29;;;;;;;12.60;5.77;;;0.80;99.90;;;;;;5101175;28;20366;-84
2023/01/19 00:42:55;;;;;;;14.33;6.47;;;0.90;99.90;;;;;;5100991;28;20357;-82
2023/01/19 00:45:22;;;;;;;12.87;6.23;;;0.90;99.90;;;;;;5101743;28;20389;-83
2023/01/19 00:47:53;;;;;;;11.80;5.80;;;0.90;99.90;;;;;;5114996;28;20031;-83
2023/01/19 00:50:19;;;;;;;14.95;6.45;;;0.90;99.90;;;;;;5118647;28;20164;-83
2023/01/19 00:52:45;;;;;;;12.80;5.93;;;0.90;99.90;;;;;;5117756;28;20473;-81
2023/01/19 00:55:12;;;;;;;13.20;6.40;;;1.00;99.90;;;;;;5100076;28;20407;-80
2023/01/19 00:57:38;;;;;;;12.27;5.77;;;1.00;99.90;;;;;;5099333;28;20116;-81
2023/01/19 01:00:06;;;;;;;13.03;5.67;;;0.90;99.90;;;;;;5100285;28;20431;-81
2023/01/19 01:02:32;;;;;;;13.73;5.63;;;1.00;99.90;;;;;;5099566;28;20032;-83
2023/01/19 01:05:01;;;;;;;11.90;6.07;;;1.00;99.90;;;;;;5117872;28;20028;-81
2023/01/19 01:07:27;;;;;;;9.57;5.40;;;1.00;99.90;;;;;;5099766;28;20027;-81
2023/01/19 01:09:53;;;;;;;9.73;5.63;;;1.00;99.90;;;;;;5098993;28;20080;-81
2023/01/19 01:12:18;;;;;;;12.23;5.60;;;1.00;99.90;;;;;;5117599;28;20027;-81
2023/01/19 01:14:44;;;;;;;14.73;5.60;;;1.00;99.90;;;;;;5099075;28;20028;-81
2023/01/19 01:17:10;;;;;;;10.03;5.30;;;1.00;99.90;;;;;;5099070;28;20036;-80
2023/01/19 01:19:40;;;;;;;10.67;5.93;;;1.00;99.90;;;;;;5098936;28;20072;-81
2023/01/19 01:22:07;;;;;;;11.53;5.53;;;1.00;99.90;;;;;;5099399;28;20027;-81
2023/01/19 01:24:32;;;;;;;10.97;4.83;;;1.00;99.90;;;;;;5117162;28;20103;-83
2023/01/19 01:26:58;;;;;;;9.70;4.90;;;1.00;99.90;;;;;;5117424;28;20058;-81
2023/01/19 01:29:24;;;;;;;10.77;5.53;;;1.00;99.90;;;;;;5099463;28;20024;-81
2023/01/19 01:31:49;;;;;;;12.90;5.67;;;1.00;99.90;;;;;;5116707;28;20034;-81
2023/01/19 01:34:15;;;;;;;9.30;5.57;;;1.00;99.90;;;;;;5099085;28;20030;-81
2023/01/19 01:36:41;;;;;;;11.93;5.27;;;1.00;99.90;;;;;;5098434;28;20407;-82
2023/01/19 01:39:07;;;;;;;10.87;4.53;;;1.00;99.90;;;;;;5098768;28;20047;-82
2023/01/19 01:41:32;;;;;;;11.73;5.20;;;1.00;99.90;;;;;;5116447;28;20042;-82
2023/01/19 01:44:00;;;;;;;11.73;5.23;;;1.10;99.90;;;;;;5098949;28;20077;-81
2023/01/19 01:46:29;;;;;;;11.67;5.87;;;1.10;99.90;;;;;;5117085;28;20081;-81
2023/01/19 01:49:11;;;;;;;14.23;5.17;;;1.10;99.90;;;;;;5116441;28;20028;-81
2023/01/19 01:51:37;;;;;;;8.33;5.47;;;1.10;99.90;;;;;;5098772;28;20032;-82
2023/01/19 01:54:08;;;;;;;12.77;5.60;;;1.10;99.90;;;;;;5117264;28;20434;-82
2023/01/19 01:56:43;;;;;;;13.60;5.20;;;1.10;99.90;;;;;;5116856;28;20346;-83
2023/01/19 01:59:33;;;;;;;12.70;5.50;;;1.10;99.90;;;;;;5099155;28;20038;-82
2023/01/19 02:05:11;;;;;;;13.97;5.90;;;1.20;99.90;;;;;;5034056;28;20141;-84
2023/01/19 02:13:20;;;;;;;8.57;5.80;;;1.20;99.90;;;;;;5034105;28;20037;-81
2023/01/19 02:15:48;;;;;;;10.47;5.73;;;1.20;99.90;;;;;;5033553;28;20072;-82
2023/01/19 02:18:14;;;;;;;13.40;6.00;;;1.20;99.90;;;;;;5017082;28;20141;-81
2023/01/19 02:20:48;;;;;;;12.77;5.67;;;1.20;99.90;;;;;;5033460;28;20064;-80
2023/01/19 02:23:21;;;;;;;15.97;6.23;;;1.30;99.90;;;;;;5017099;28;20038;-80
2023/01/19 02:25:47;;;;;;;13.03;6.00;;;1.20;99.90;;;;;;5033437;28;20029;-79
2023/01/19 02:28:14;;;;;;;11.07;5.90;;;1.20;99.90;;;;;;5017122;28;20032;-79
2023/01/19 02:30:40;;;;;;;13.30;6.23;;;1.30;99.90;;;;;;5016087;28;20029;-81
2023/01/19 02:33:06;;;;;;;11.77;6.43;;;1.30;99.90;;;;;;5033330;28;20037;-79
2023/01/19 02:35:33;;;;;;;12.07;6.37;;;1.30;99.90;;;;;;5055922;28;20044;-80
2023/01/19 02:38:00;;;;;;;14.43;7.27;;;1.30;99.90;;;;;;5095083;28;20048;-81
2023/01/19 02:40:26;;;;;;;13.67;6.30;;;1.30;99.90;;;;;;5095626;28;20446;-81
2023/01/19 02:42:57;;;;;;;12.20;6.03;;;1.30;99.90;;;;;;5094306;28;20066;-83
2023/01/19 02:45:23;;;;;;;14.23;6.03;;;1.30;99.90;;;;;;5094962;28;20054;-82
2023/01/19 02:47:51;;;;;;;12.50;5.97;;;1.30;99.90;;;;;;5094567;28;20062;-83
2023/01/19 02:50:37;;;;;;;11.53;6.13;;;1.30;99.90;;;;;;5094868;28;20020;-81
2023/01/19 02:53:20;;;;;;;12.03;6.23;;;1.30;99.90;;;;;;5094012;28;20028;-81
2023/01/19 02:56:04;;;;;;;12.27;5.77;;;1.30;99.90;;;;;;5093627;28;20024;-82
2023/01/19 02:58:40;;;;;;;12.03;5.90;;;1.30;99.90;;;;;;5094460;28;20044;-83
2023/01/19 03:01:25;;;;;;;12.13;6.30;;;1.30;99.90;;;;;;5095583;28;20076;-82
2023/01/19 03:04:00;;;;;;;12.87;5.83;;;1.30;99.90;;;;;;5093752;28;20537;-82
2023/01/19 03:07:06;;;;;;;11.47;5.93;;;1.30;99.90;;;;;;5095522;28;20053;-82
2023/01/19 03:10:00;;;;;;;14.77;6.17;;;1.20;99.90;;;;;;5054598;28;20043;-81
2023/01/19 03:12:44;;;;;;;13.10;6.20;;;1.20;99.90;;;;;;5094224;28;20020;-81
2023/01/19 03:15:24;;;;;;;13.83;6.37;;;1.20;99.90;;;;;;5094898;28;20504;-80
2023/01/19 03:17:52;;;;;;;14.70;6.47;;;1.20;99.90;;;;;;5093302;28;20052;-81
2023/01/19 03:20:22;;;;;;;12.53;6.37;;;1.10;99.90;;;;;;5094028;28;20392;-81
2023/01/19 03:22:52;;;;;;;12.40;6.50;;;1.10;99.90;;;;;;5093453;28;20023;-79
2023/01/19 03:25:20;;;;;;;13.33;7.00;;;1.10;99.90;;;;;;5093261;28;20031;-80
2023/01/19 03:27:47;;;;;;;16.40;6.77;;;1.10;99.90;;;;;;5093473;28;20032;-80
2023/01/19 03:30:21;;;;;;;12.10;6.97;;;1.10;99.90;;;;;;5093777;28;20028;-80
2023/01/19 03:32:50;;;;;;;13.87;6.57;;;1.10;99.90;;;;;;5092376;28;20089;-80
2023/01/19 03:35:18;;;;;;;16.20;7.37;;;1.10;99.90;;;;;;5092579;28;20089;-80
2023/01/19 03:37:46;;;;;;;15.30;7.00;;;1.10;99.90;;;;;;5092229;28;20031;-81
2023/01/19 03:40:12;;;;;;;14.53;6.80;;;1.20;99.90;;;;;;5093690;28;20036;-82
2023/01/19 03:42:39;;;;;;;16.00;6.70;;;1.20;99.90;;;;;;5093228;28;20029;-85
2023/01/19 03:45:06;;;;;;;14.00;6.60;;;1.20;99.90;;;;;;5093732;28;20024;-82
2023/01/19 03:47:34;;;;;;;13.30;7.00;;;1.30;99.90;;;;;;5092477;28;20107;-80
2023/01/19 03:50:03;;;;;;;13.47;6.57;;;1.30;99.90;;;;;;5091762;28;20030;-80
2023/01/19 03:52:32;;;;;;;14.60;6.83;;;1.30;99.90;;;;;;5092500;28;20031;-80
2023/01/19 03:54:59;;;;;;;14.00;6.63;;;1.40;99.90;;;;;;5092831;28;20020;-81
2023/01/19 03:57:25;;;;;;;16.00;6.67;;;1.40;99.90;;;;;;5092269;28;20122;-80
2023/01/19 03:59:51;;;;;;;12.80;6.63;;;1.40;99.90;;;;;;5091777;28;20135;-80
2023/01/19 04:02:16;;;;;;;12.67;6.60;;;1.30;99.90;;;;;;5092280;28;20036;-82
2023/01/19 04:04:42;;;;;;;12.93;7.00;;;1.30;99.90;;;;;;5091052;28;20082;-81
2023/01/19 04:07:09;;;;;;;13.93;6.33;;;1.30;99.90;;;;;;5091182;28;20068;-80
2023/01/19 04:09:34;;;;;;;14.30;6.70;;;1.30;99.90;;;;;;5092911;28;20031;-82
2023/01/19 04:12:00;;;;;;;13.40;6.13;;;1.30;99.90;;;;;;5093071;28;20032;-82
2023/01/19 04:14:26;;;;;;;14.20;7.30;;;1.30;99.90;;;;;;5093264;28;20020;-82
2023/01/19 04:16:52;;;;;;;15.03;6.53;;;1.30;99.90;;;;;;5092593;28;20035;-80
2023/01/19 04:19:17;;;;;;;15.87;7.23;;;1.30;99.90;;;;;;5055108;28;1066261;-80
2023/01/19 04:21:43;;;;;;;14.73;7.17;;;1.30;99.90;;;;;;5093429;28;20032;-80
2023/01/19 04:24:09;;;;;;;15.53;7.17;;;1.30;99.90;;;;;;5092981;28;20028;-80
2023/01/19 04:26:35;;;;;;;14.40;6.40;;;1.40;99.90;;;;;;5093802;28;20053;-82
2023/01/19 04:29:00;;;;;;;13.23;6.63;;;1.40;99.90;;;;;;5092527;28;20066;-81
2023/01/19 04:31:26;;;;;;;14.37;6.63;;;1.30;99.90;;;;;;5093648;28;20120;-81
2023/01/19 04:33:51;;;;;;;12.90;6.93;;;1.30;99.90;;;;;;5092201;28;20024;-82
2023/01/19 04:36:17;;;;;;;13.90;6.77;;;1.30;99.90;;;;;;5092800;28;20122;-81
2023/01/19 04:38:45;;;;;;;16.73;6.83;;;1.30;99.90;;;;;;5093055;28;20035;-81
2023/01/19 04:41:10;;;;;;;14.87;6.80;;;1.30;99.90;;;;;;5093532;28;20028;-79
2023/01/19 04:43:36;;;;;;;13.83;6.80;;;1.30;99.90;;;;;;5092358;28;20031;-79
2023/01/19 04:46:02;;;;;;;14.20;6.37;;;1.30;99.90;;;;;;5093372;28;20032;-81
2023/01/19 04:48:28;;;;;;;13.47;6.77;;;1.30;99.90;;;;;;5092960;28;20024;-81
2023/01/19 04:50:53;;;;;;;12.90;6.10;;;1.30;99.90;;;;;;5092564;28;20039;-81
2023/01/19 04:53:19;;;;;;;14.17;6.93;;;1.30;99.90;;;;;;5092967;28;20030;-81
2023/01/19 04:55:45;;;;;;;12.80;6.60;;;1.30;99.90;;;;;;5092064;28;20024;-82
2023/01/19 04:58:11;;;;;;;13.50;6.77;;;1.40;99.90;;;;;;5093786;28;20519;-82
2023/01/19 05:00:36;;;;;;;15.23;7.20;;;1.40;99.90;;;;;;5092732;28;20052;-81
2023/01/19 05:03:03;;;;;;;15.73;7.37;;;1.50;99.90;;;;;;5092410;28;20488;-81
2023/01/19 05:05:29;;;;;;;17.80;7.43;;;1.50;99.90;;;;;;5093005;28;20027;-81
2023/01/19 05:07:55;;;;;;;16.47;7.47;;;1.40;99.90;;;;;;5092467;28;20028;-81
2023/01/19 05:10:20;;;;;;;15.80;6.83;;;1.50;99.90;;;;;;5092431;28;20041;-81
2023/01/19 05:12:46;;;;;;;13.13;6.40;;;1.40;99.90;;;;;;5091878;28;20031;-81
2023/01/19 05:15:11;;;;;;;14.50;6.30;;;1.40;99.90;;;;;;5092493;28;20024;-81
2023/01/19 05:17:38;;;;;;;15.73;6.80;;;1.50;99.90;;;;;;5099035;28;20052;-82
2023/01/19 05:20:04;;;;;;;14.23;7.10;;;1.40;99.90;;;;;;5098973;28;20039;-79
2023/01/19 05:22:29;;;;;;;12.57;6.53;;;1.40;99.90;;;;;;5098695;28;20525;-81
2023/01/19 05:24:55;;;;;;;12.77;6.83;;;1.40;99.90;;;;;;5098830;28;20028;-82
2023/01/19 05:27:21;;;;;;;11.93;6.10;;;1.40;99.90;;;;;;5116602;28;20032;-79
2023/01/19 05:29:46;;;;;;;11.77;5.93;;;1.30;99.90;;;;;;5098622;28;20027;-79
2023/01/19 05:32:12;;;;;;;11.97;6.10;;;1.30;99.90;;;;;;5099228;28;20055;-80
2023/01/19 05:34:38;;;;;;;18.13;7.53;;;1.30;99.90;;;;;;5099352;28;20053;-79
2023/01/19 05:37:03;;;;;;;12.10;6.10;;;1.20;99.90;;;;;;5098648;28;20243;-80
2023/01/19 05:39:29;;;;;;;12.20;6.30;;;1.30;99.90;;;;;;5098831;28;20038;-79
2023/01/19 05:41:55;;;;;;;16.03;7.13;;;1.30;99.90;;;;;;5098744;28;20445;-81
2023/01/19 05:44:21;;;;;;;13.97;6.53;;;1.30;99.90;;;;;;5099201;28;20027;-81
2023/01/19 05:46:46;;;;;;;14.33;6.07;;;1.30;99.90;;;;;;5098436;28;20479;-81
2023/01/19 05:49:12;;;;;;;12.50;6.57;;;1.20;99.90;;;;;;5117107;28;20030;-81
2023/01/19 05:51:39;;;;;;;14.63;6.23;;;1.20;99.90;;;;;;5098962;28;20028;-79
2023/01/19 05:54:05;;;;;;;14.23;6.83;;;1.10;99.90;;;;;;5098712;28;20023;-81
2023/01/19 05:56:31;;;;;;;14.87;7.00;;;1.10;99.90;;;;;;5116993;28;20031;-81
2023/01/19 05:58:57;;;;;;;10.00;5.50;;;1.10;99.90;;;;;;5116577;28;20031;-82
2023/01/19 06:01:23;;;;;;;13.60;5.90;;;1.00;99.90;;;;;;5098955;28;20024;-80
2023/01/19 06:03:48;;;;;;;16.67;7.13;;;1.00;99.90;;;;;;5101417;28;20092;-80
2023/01/19 06:06:14;;;;;;;15.57;6.33;;;1.00;99.90;;;;;;5102873;28;20027;-79
2023/01/19 06:08:40;;;;;;;14.73;6.60;;;1.00;99.90;;;;;;5120496;28;20463;-79
2023/01/19 06:11:06;;;;;;;13.83;6.40;;;0.90;99.90;;;;;;5121149;28;20039;-81
2023/01/19 06:13:32;;;;;;;13.23;6.13;;;1.00;99.90;;;;;;5122592;28;20035;-80
2023/01/19 06:15:59;;;;;;;12.93;6.17;;;1.00;99.90;;;;;;5104526;28;20039;-79
2023/01/19 06:18:25;;;;;;;15.57;5.90;;;1.00;99.90;;;;;;5123064;28;20069;-78
2023/01/19 06:20:57;;;;;;;11.40;5.97;;;1.10;99.90;;;;;;5104100;28;20468;-80
2023/01/19 06:23:29;;;;;;;;;;;1.10;99.90;;;;;;5123697;28;20373;-80
2023/01/19 06:25:55;;;;;;;12.40;5.80;;;1.00;99.90;;;;;;5104776;28;20241;-82
2023/01/19 06:28:21;;;;;;;12.20;5.87;;;1.00;99.90;;;;;;5122503;28;20024;-82
2023/01/19 06:30:49;;;;;;;12.33;6.03;;;1.00;99.90;;;;;;5104110;28;20023;-84
2023/01/19 06:33:15;;;;;;;11.57;5.57;;;1.10;99.90;;;;;;5122109;28;20107;-79
2023/01/19 06:35:45;;;;;;;10.33;5.17;;;1.10;99.90;;;;;;5103620;28;20036;-80
2023/01/19 06:38:12;;;;;;;12.03;6.37;;;1.10;99.90;;;;;;5102870;28;20070;-79
2023/01/19 06:40:41;;;;;;;12.93;5.83;;;1.20;99.90;;;;;;5102658;28;20042;-79
2023/01/19 06:43:07;;;;;;;13.10;6.23;;;1.10;99.90;;;;;;5120113;28;20240;-78
2023/01/19 06:45:33;;;;;;;12.10;6.03;;;1.20;99.90;;;;;;5102067;28;20026;-78
2023/01/19 06:47:59;;;;;;;10.80;5.37;;;1.20;99.90;;;;;;5120431;28;20087;-85
2023/01/19 06:50:25;;;;;;;10.77;5.67;;;1.20;99.90;;;;;;5110818;28;20023;-79
2023/01/19 06:52:50;;;;;;;12.83;5.93;;;1.20;99.90;;;;;;5126321;28;20097;-81
2023/01/19 06:55:16;;;;;;;12.13;5.80;;;1.20;99.90;;;;;;5126802;28;20081;-82
2023/01/19 06:57:43;;;;;;;11.33;6.00;;;1.20;99.90;;;;;;5114668;28;20031;-81
2023/01/19 07:00:10;;;;;;;11.33;5.70;;;1.20;99.90;;;;;;5095992;28;20332;-81
2023/01/19 07:02:36;;;;;;;12.67;5.93;;;1.20;99.90;;;;;;5096656;28;20024;-81
2023/01/19 07:05:02;;;;;;;10.67;5.77;;;1.20;99.90;;;;;;5095976;28;20023;-80
2023/01/19 07:07:28;;;;;;;13.63;5.83;;;1.20;99.90;;;;;;5115110;28;20043;-80
2023/01/19 07:09:54;;;;;;;10.53;5.53;;;1.20;99.90;;;;;;5096558;28;20023;-80
2023/01/19 07:12:20;;;;;;;10.57;5.70;;;1.20;99.90;;;;;;5114845;28;20405;-78
2023/01/19 07:14:48;;;;;;;10.70;5.67;;;1.20;99.90;;;;;;5096095;28;20483;-78
2023/01/19 07:17:14;;;;;;;12.90;6.10;;;1.20;99.90;;;;;;5095684;28;20066;-77
2023/01/19 07:19:39;;;;;;;11.70;5.77;;;1.20;99.90;;;;;;5096772;28;20020;-78
2023/01/19 07:22:08;;;;;;;11.43;5.77;;;1.20;99.90;;;;;;5095860;28;20069;-77
2023/01/19 07:24:34;;;;;;;9.33;5.10;;;1.20;99.90;;;;;;5114192;28;20024;-76
2023/01/19 07:26:59;;;;;;;11.23;5.07;;;1.20;99.90;;;;;;5095311;28;20027;-76
2023/01/19 07:29:26;;;;;;;11.07;5.47;;;1.20;99.90;;;;;;5114053;28;20030;-76
2023/01/19 07:31:53;;;;;;;11.83;5.70;;;1.10;99.90;;;;;;5113089;28;20439;-76
2023/01/19 07:34:20;;;;;;;12.17;5.57;;;1.20;99.90;;;;;;5113899;28;20026;-76
2023/01/19 07:36:46;;;;;;;10.87;5.27;;;1.10;99.90;;;;;;5095490;28;20027;-74
2023/01/19 07:39:12;;;;;;;11.10;5.33;;;1.20;99.90;;;;;;5095113;28;20036;-76
2023/01/19 07:41:37;;;;;;;14.13;5.57;;;1.20;99.90;;;;;;5095398;28;20074;-76
2023/01/19 07:44:03;;;;;;;11.83;6.30;;;1.20;99.90;;;;;;5113294;28;20376;-76
2023/01/19 07:46:29;;;;;;;10.33;5.70;;;1.20;99.90;;;;;;5095388;28;20031;-76
2023/01/19 07:48:54;;;;;;;12.60;6.23;;;1.30;99.90;;;;;;5095275;28;20115;-76
2023/01/19 07:51:20;;;;;;;11.30;5.87;;;1.30;99.90;;;;;;5095472;28;20460;-76
2023/01/19 07:53:48;;;;;;;13.53;6.30;;;1.30;99.90;;;;;;5113662;28;20023;-76
2023/01/19 07:56:13;;;;;;;11.60;5.80;;;1.30;99.90;;;;;;5113112;28;20031;-76
2023/01/19 07:58:39;;;;;;;12.17;5.77;;;1.40;99.90;;;;;;5113551;28;20479;-76
2023/01/19 08:01:09;;;;;;;16.20;5.90;;;1.40;99.90;;;;;;5095091;28;20020;-76
2023/01/19 08:03:36;;;;;;;11.63;5.53;;;1.50;99.90;;;;;;5094982;28;20491;-76
2023/01/19 08:06:03;;;;;;;9.37;5.00;;;1.50;99.90;;;;;;5094803;28;20110;-76
2023/01/19 08:08:30;;;;;;;11.97;5.43;;;1.60;99.90;;;;;;5095263;28;20080;-76
2023/01/19 08:10:55;;;;;;;10.37;4.67;;;1.50;99.90;;;;;;5094784;28;20120;-76
2023/01/19 08:13:21;;;;;;;12.00;5.53;;;1.50;99.90;;;;;;5095437;28;20114;-76
2023/01/19 08:15:51;;;;;;;12.87;5.43;;;1.50;99.90;;;;;;5095197;28;20028;-76
2023/01/19 08:18:17;;;;;;;11.17;5.63;;;1.60;99.90;;;;;;5094418;28;20599;-76
2023/01/19 08:20:43;;;;;;;7.57;4.47;;;1.60;99.90;;;;;;5095147;28;20024;-76
2023/01/19 08:23:09;;;;;;;14.10;5.30;;;1.60;99.90;;;;;;5085536;28;20495;-78
2023/01/19 08:25:45;;;;;;;9.40;4.93;;;1.60;99.90;;;;;;5089852;28;20082;-76
2023/01/19 08:28:14;;;;;;;12.20;5.70;;;1.60;99.90;;;;;;5094967;28;20031;-76
2023/01/19 08:30:42;;;;;;;9.40;4.93;;;1.70;99.90;;;;;;5089024;28;20027;-76
2023/01/19 08:33:07;;;;;;;9.83;5.03;;;1.70;99.90;;;;;;5094183;28;20051;-77
2023/01/19 08:35:35;;;;;;;8.87;5.03;;;1.70;99.90;;;;;;5112773;28;20055;-77
2023/01/19 08:38:01;;;;;;;12.70;5.47;;;1.70;99.90;;;;;;5093995;28;20547;-77
2023/01/19 08:40:34;;;;;;;8.00;5.07;;;1.70;99.90;;;;;;5094818;28;20028;-76
2023/01/19 08:43:07;;;;;;;10.30;5.10;;;1.80;99.90;;;;;;5094327;28;20111;-76
2023/01/19 08:45:34;;;;;;;11.47;5.40;;;1.80;99.90;;;;;;5091666;28;20089;-77
2023/01/19 08:48:00;;;;;;;8.40;4.53;;;1.80;99.90;;;;;;5106423;28;20028;-78
2023/01/19 08:50:29;;;;;;;10.23;5.20;;;1.80;99.90;;;;;;5094983;28;20080;-81
2023/01/19 08:53:00;;;;;;;11.37;5.23;;;1.80;99.90;;;;;;5087696;28;20019;-81
2023/01/19 08:55:27;;;;;;;11.87;5.17;;;1.80;99.90;;;;;;5112939;28;20020;-81
2023/01/19 08:57:53;;;;;;;13.93;5.40;;;1.80;99.90;;;;;;5099233;28;20083;-78
2023/01/19 09:00:20;;;;;;;12.17;5.30;;;1.80;99.90;;;;;;5099019;28;20020;-79
2023/01/19 09:02:46;;;;;;;10.97;5.33;;;1.90;99.90;;;;;;5099166;28;20020;-78
2023/01/19 09:05:12;;;;;;;10.20;5.30;;;1.90;99.90;;;;;;5116606;28;20031;-79
2023/01/19 09:07:38;;;;;;;10.90;4.97;;;1.90;99.90;;;;;;5116713;28;20028;-78
2023/01/19 09:10:04;;;;;;;12.93;5.20;;;1.90;99.90;;;;;;5098193;28;20024;-79
2023/01/19 09:12:30;;;;;;;10.40;4.80;;;2.00;99.90;;;;;;5117304;28;20024;-81
2023/01/19 09:14:56;;;;;;;9.87;4.90;;;2.00;99.90;;;;;;5116594;28;20020;-79
2023/01/19 09:17:22;;;;;;;10.10;4.80;;;2.00;99.90;;;;;;5091995;28;20032;-79
2023/01/19 09:19:48;;;;;;;10.10;5.13;;;2.00;99.90;;;;;;5098869;28;20027;-79
2023/01/19 09:22:13;;;;;;;9.87;5.00;;;2.20;99.90;;;;;;5097851;28;20031;-81
2023/01/19 09:24:39;;;;;;;11.43;4.97;;;2.30;99.90;;;;;;5113790;28;20492;-81
2023/01/19 09:27:05;;;;;;;10.43;4.37;;;2.30;99.90;;;;;;5092296;28;20035;-78
2023/01/19 09:29:30;;;;;;;10.67;4.47;;;2.30;99.90;;;;;;5098749;28;20453;-78
2023/01/19 09:31:56;;;;;;;9.07;4.53;;;2.30;99.90;;;;;;5104526;28;20027;-77
2023/01/19 09:34:24;;;;;;;8.10;4.43;;;2.40;99.90;;;;;;5104470;28;20035;-77
2023/01/19 09:36:50;;;;;;;10.67;4.70;;;2.40;99.90;;;;;;5094288;28;20123;-77
2023/01/19 09:39:16;;;;;;;12.53;6.17;;;2.50;99.90;;;;;;5093616;28;20536;-77
2023/01/19 09:41:47;;;;;;;9.07;4.80;;;2.60;99.90;;;;;;5108152;28;20080;-76
2023/01/19 09:44:32;;;;;;;8.60;4.30;;;2.60;99.90;;;;;;5110275;28;20039;-77
2023/01/19 09:46:58;;;;;;;8.63;4.73;;;2.60;99.90;;;;;;5092494;28;20079;-78
2023/01/19 09:49:35;;;;;;;7.17;4.10;;;2.60;99.90;;;;;;5097126;27;20064;-77
2023/01/19 09:52:02;;;;;;;7.47;4.30;;;2.50;99.90;;;;;;5103665;28;20020;-78
2023/01/19 09:54:39;;;;;;;10.00;4.60;;;2.40;99.90;;;;;;5108646;28;20034;-77
2023/01/19 09:57:10;;;;;;;9.17;4.80;;;2.20;99.90;;;;;;5122830;27;20484;-78
2023/01/19 09:59:37;;;;;;;9.20;4.40;;;2.20;99.90;;;;;;5098021;28;20468;-78
2023/01/19 10:02:30;;;;;;;7.77;4.50;;;2.20;99.90;;;;;;5097247;28;20058;-77
2023/01/19 10:05:18;;;;;;;11.47;5.13;;;2.20;99.90;;;;;;5094574;28;20020;-78
2023/01/19 10:07:52;;;;;;;7.53;4.87;;;2.20;99.90;;;;;;5110386;28;20023;-78
2023/01/19 10:10:29;;;;;;;8.63;4.50;;;2.20;99.90;;;;;;5094801;28;20024;-79
2023/01/19 10:13:21;;;;;;;11.27;4.40;;;2.20;99.90;;;;;;5077393;28;20123;-79
2023/01/19 10:16:32;;;;;;;9.18;4.55;;;2.20;99.90;;;;;;5079234;28;20502;-77
2023/01/19 10:19:11;;;;;;;8.43;4.37;;;2.10;99.90;;;;;;5085564;28;20095;-78
2023/01/19 10:21:42;;;;;;;9.93;4.93;;;2.10;99.90;;;;;;5097208;28;20080;-76
2023/01/19 10:24:26;;;;;;;8.00;4.13;;;2.10;99.90;;;;;;5115130;28;20035;-77
2023/01/19 10:26:55;;;;;;;10.93;5.57;;;2.20;99.90;;;;;;5115334;28;20047;-77
2023/01/19 10:29:35;;;;;;;10.00;4.70;;;2.20;99.90;;;;;;5115361;28;20024;-76
2023/01/19 10:32:06;;;;;;;10.03;5.30;;;2.30;99.90;;;;;;5097209;28;20383;-79
2023/01/19 10:34:32;;;;;;;11.15;4.65;;;2.40;99.90;;;;;;5097379;28;20027;-78
2023/01/19 10:37:31;;;;;;;8.20;4.70;;;2.40;99.90;;;;;;5096878;28;20394;-79
2023/01/19 10:40:05;;;;;;;8.67;5.20;;;2.40;99.90;;;;;;5095866;28;20047;-78
2023/01/19 10:42:31;;;;;;;13.13;5.40;;;2.50;99.90;;;;;;5096589;28;20073;-77
2023/01/19 10:44:56;;;;;;;11.77;5.43;;;2.40;99.90;;;;;;5096618;28;20024;-78
2023/01/19 10:47:35;;;;;;;11.17;5.47;;;2.50;99.90;;;;;;5096639;28;20028;-77
2023/01/19 10:50:21;;;;;;;9.17;4.63;;;2.40;99.90;;;;;;5114604;28;20050;-80
2023/01/19 10:53:02;;;;;;;12.30;5.50;;;2.40;99.90;;;;;;5092592;28;20034;-78
2023/01/19 10:55:34;;;;;;;11.03;5.23;;;2.40;99.90;;;;;;5096075;28;20396;-78
2023/01/19 10:58:00;;;;;;;10.15;5.18;;;2.40;99.90;;;;;;5095969;28;20028;-80
2023/01/19 11:00:34;;;;;;;10.20;5.73;;;2.40;99.90;;;;;;5096862;28;20034;-78
2023/01/19 11:03:00;;;;;;;16.30;5.60;;;2.40;99.90;;;;;;5095916;28;20024;-78
2023/01/19 11:05:29;;;;;;;12.40;5.47;;;2.30;99.90;;;;;;5096002;28;20373;-79
2023/01/19 11:07:55;;;;;;;11.83;5.57;;;2.30;99.90;;;;;;5113960;28;20047;-79
2023/01/19 11:10:23;;;;;;;9.50;5.40;;;2.30;99.90;;;;;;5096217;28;20270;-78
2023/01/19 11:13:06;;;;;;;10.43;5.10;;;2.40;99.90;;;;;;5090143;28;20041;-80
2023/01/19 11:15:33;;;;;;;;;;;2.40;99.90;;;;;;5095923;28;20073;-81
2023/01/19 11:18:00;;;;;;;9.90;5.23;;;2.40;99.90;;;;;;5112870;28;19916;-78
2023/01/19 11:20:51;;;;;;;11.00;6.23;;;2.40;99.90;;;;;;5095549;28;20039;-77
2023/01/19 11:23:32;;;;;;;8.80;4.70;;;2.50;99.90;;;;;;5113220;28;20272;-79
2023/01/19 11:26:00;;;;;;;11.30;5.67;;;2.50;99.90;;;;;;5113109;28;20043;-80
2023/01/19 11:28:33;;;;;;;9.33;5.80;;;2.60;99.90;;;;;;5095627;28;20028;-79
2023/01/19 11:31:02;;;;;;;11.53;5.53;;;2.70;99.90;;;;;;5095055;28;20135;-80
2023/01/19 11:33:36;;;;;;;11.97;5.47;;;2.70;99.90;;;;;;5095077;28;20030;-79
2023/01/19 11:36:05;;;;;;;9.33;5.30;;;2.80;99.90;;;;;;5096209;28;20039;-92
2023/01/19 11:38:31;;;;;;;11.43;5.50;;;2.80;99.90;;;;;;5097264;28;20460;-80
2023/01/19 11:40:58;;;;;;;10.57;5.97;;;2.80;99.90;;;;;;5113149;28;20032;-83
2023/01/19 11:43:28;;;;;;;10.73;5.37;;;2.80;99.90;;;;;;5095703;28;20077;-80
2023/01/19 11:45:55;;;;;;;11.43;5.30;;;2.80;99.90;;;;;;5095818;28;20028;-80
2023/01/19 11:48:38;;;;;;;14.50;5.50;;;2.90;99.90;;;;;;5080241;28;20031;-80
2023/01/19 11:51:09;;;;;;;8.50;5.40;;;2.90;99.90;;;;;;5095754;28;20054;-81
2023/01/19 11:53:34;;;;;;;11.17;5.47;;;2.90;99.90;;;;;;5087277;28;20035;-80
2023/01/19 11:56:12;;;;;;;10.13;5.40;;;2.90;99.90;;;;;;5078354;28;20028;-82
2023/01/19 11:58:45;;;;;;;9.90;5.27;;;2.90;99.90;;;;;;5114132;28;20059;-80
2023/01/19 12:01:20;;;;;;;10.37;5.00;;;2.90;99.90;;;;;;5095373;28;20027;-81
2023/01/19 12:03:59;;;;;;;12.00;5.77;;;2.90;99.90;;;;;;5096235;28;20468;-81
2023/01/19 12:06:39;;;;;;;12.87;6.00;;;3.00;99.90;;;;;;5095998;28;20028;-80
2023/01/19 12:09:14;;;;;;;11.60;6.17;;;2.90;99.90;;;;;;5113943;28;20083;-80
2023/01/19 12:11:54;;;;;;;12.43;6.00;;;3.00;99.90;;;;;;5114071;28;20034;-80
2023/01/19 12:14:33;;;;;;;10.33;5.67;;;3.00;99.90;;;;;;5095596;28;20115;-79
2023/01/19 12:17:01;;;;;;;8.87;5.03;;;3.00;99.90;;;;;;5112878;28;20447;-80
2023/01/19 12:19:45;;;;;;;8.00;4.50;;;3.00;99.90;;;;;;5099711;28;20054;-80
2023/01/19 12:22:15;;;;;;;12.10;6.00;;;3.10;99.90;;;;;;5113344;28;20048;-80
2023/01/19 12:24:51;;;;;;;10.23;5.10;;;3.00;99.90;;;;;;5077769;28;20054;-80
2023/01/19 12:27:39;;;;;;;15.63;5.90;;;3.00;99.90;;;;;;5096346;28;20073;-81
2023/01/19 12:30:15;;;;;;;12.47;5.37;;;2.90;99.90;;;;;;5099595;28;20110;-80
2023/01/19 12:32:41;;;;;;;10.97;5.67;;;3.00;99.90;;;;;;5096841;28;20114;-78
2023/01/19 12:35:46;;;;;;;12.13;5.63;;;3.00;99.90;;;;;;5114600;28;20027;-78
2023/01/19 12:38:30;;;;;;;11.97;5.13;;;3.00;99.90;;;;;;5115073;28;20063;-77
2023/01/19 12:41:25;;;;;;;9.63;4.67;;;2.90;99.90;;;;;;5106361;28;20080;-78
2023/01/19 12:44:10;;;;;;;11.60;5.17;;;2.90;99.90;;;;;;5101586;28;20378;-78
2023/01/19 12:46:40;;;;;;;11.40;5.70;;;2.90;99.90;;;;;;5114658;28;20068;-78
2023/01/19 12:49:20;;;;;;;10.23;5.13;;;2.90;99.90;;;;;;5113477;28;20019;-79
2023/01/19 12:51:46;;;;;;;10.30;5.13;;;2.90;99.90;;;;;;5110108;28;20019;-78
2023/01/19 12:54:32;;;;;;;12.23;6.30;;;2.90;99.90;;;;;;5093639;28;20060;-78
2023/01/19 12:57:18;;;;;;;10.17;5.50;;;2.80;99.90;;;;;;5116991;28;20362;-81
2023/01/19 12:59:44;;;;;;;10.67;5.27;;;2.90;99.90;;;;;;5116377;28;20028;-78
2023/01/19 13:02:44;;;;;;;13.33;5.93;;;2.80;99.90;;;;;;5096382;28;20022;-79
2023/01/19 13:05:29;;;;;;;10.40;5.83;;;2.80;99.90;;;;;;5080982;28;20031;-79
2023/01/19 13:08:01;;;;;;;10.77;5.40;;;2.80;99.90;;;;;;5082813;28;20429;-78
2023/01/19 13:11:04;;;;;;;10.70;5.47;;;2.80;99.90;;;;;;5078459;28;20032;-79